Balen, Belgium
Current Conditions -  °F | °C
As of 6:52 PM on Friday 24 Oct 2014 (Local Time) from EBDT Reporting Station
Broken Clouds Broken Clouds  
Wind Chill: 54°   Ceiling: 3200
Heat Index: 54°   Visibility: 4mi
Dew Point: 48°   Wind: 9mph
Humidity: 82%   Direction: 190°S
Pressure: 30.03"   Gusts: NA
Location:  51.17°N, 5.17°E
Report Text: EBDT 241652Z AUTO 19008KT 7000 FEW021/// SCT025/// BKN032/// 12/09 Q1017 WHT
Loading
Personal Weather Stations






























Interactive Weather Map
Tropical Storm Tracking
New forecast layout! Learn more

10-Day Weather Forecast

Advertisements
Track Severe Weather on mobile